Addis, Louisiana
Current Conditions -  °F | °C
As of 1:53 PM on Thursday 30 Oct 2014 (Local Time) from KBTR Reporting Station
Clear Clear  
Wind Chill: 23°   Ceiling: Unl
Heat Index: 23°   Visibility: 10mi
Dew Point:   Wind: 7mph
Humidity: 30%   Direction: 10°N
Pressure: 30.07"   Gusts: NA
Location:  30.35°N, 91.27°W
Report Text: KBTR 301853Z 01006KT 10SM CLR 23/05 A3007 RMK AO2 SLP183 T02330050
Loading
Personal Weather Stations






























Interactive Weather Map
Tropical Storm Tracking
New forecast layout! Learn more

10-Day Weather Forecast

Advertisements
Track Severe Weather on mobile